»·PEaware :: N1XC KFUL-KGCN

N1XC :: KFUL-KGCN

FLIGHT INFORMATION

Flight Status: Arrived
Operator: Privately registered:
United States
More flights under this callsign
Pilot: Adam S. (8156)
Aircraft: CESSNA T210 TURBO CENTURION
(T210)
More flights by this aircraft type
Origin: KFUL Fullerton Mun
United States
Destination: KGCN Grand Canyon Natl Park
United States
More flights between these airports :: More routes between these airports
Route: +HEC GCN
File this flight plan on PilotEdge
Remarks:
Altitude:
(Current/Filed)
11,500ft
Speed:
(Current/Filed)
160kts
Departed: 02-Sep-17 03:42 PM
Arrived: 02-Sep-17 05:44 PM
Distance/Time
Traveled:
313nm/2:02
Distance/Time
To Go:
Arrived

Flight Plot

Page will automatically refresh every two minutes.

Flight plan parsing failed; only flown route is shown


Map Options




Map Legend


Flown Route
Filed Route
Departure Airport
Arrival Airport
Navaid (VOR, NDB)
Fix

Horizontal Profiles

Position Reports

Time Latitude Longitude Heading Altitude Ground
Speed
02-Sep-17 15:35 33.870868 -117.980964 348 93ft 0kts
02-Sep-17 15:36 33.870868 -117.980964 348 93ft 0kts
02-Sep-17 15:37 33.870868 -117.980964 348 93ft 0kts
02-Sep-17 15:38 33.870868 -117.980964 348 93ft 0kts
02-Sep-17 15:39 33.870868 -117.980964 348 93ft 0kts
02-Sep-17 15:40 33.870868 -117.980964 348 93ft 0kts
02-Sep-17 15:41 33.871684 -117.979369 78 93ft 19kts
02-Sep-17 15:42 33.872517 -117.974948 65 93ft 3kts
02-Sep-17 15:43 33.872555 -117.974877 33 93ft 0kts
02-Sep-17 15:44 33.872555 -117.974877 33 93ft 0kts
02-Sep-17 15:45 33.872854 -117.975594 256 93ft 15kts
02-Sep-17 15:46 33.874272 -117.994739 307 651ft 81kts
02-Sep-17 15:47 33.893124 -118.007027 7 1429ft 92kts
02-Sep-17 15:48 33.909819 -117.986717 53 2282ft 92kts
02-Sep-17 15:49 33.923620 -117.963706 49 3085ft 93kts
02-Sep-17 15:50 33.938992 -117.938469 51 3548ft 128kts
02-Sep-17 15:51 33.959894 -117.902677 52 3514ft 137kts
02-Sep-17 15:52 33.981840 -117.865435 52 3512ft 166kts
02-Sep-17 15:53 34.005915 -117.824607 52 4044ft 153kts
02-Sep-17 15:54 34.027835 -117.787407 51 4649ft 151kts
02-Sep-17 15:55 34.049960 -117.750478 54 5221ft 152kts
02-Sep-17 15:56 34.072361 -117.712679 58 5836ft 149kts
02-Sep-17 15:57 34.094246 -117.675233 57 6509ft 140kts
02-Sep-17 15:58 34.113403 -117.642645 57 7087ft 136kts
02-Sep-17 15:59 34.134533 -117.606941 57 7694ft 135kts
02-Sep-17 16:00 34.157573 -117.567752 58 7605ft 153kts
02-Sep-17 16:01 34.179727 -117.530148 58 7860ft 123kts
02-Sep-17 16:02 34.197706 -117.499354 55 8272ft 109kts
02-Sep-17 16:03 34.214858 -117.470687 62 8638ft 101kts
02-Sep-17 16:04 34.230482 -117.443598 58 9011ft 96kts
02-Sep-17 16:05 34.247238 -117.414963 57 9546ft 111kts
02-Sep-17 16:06 34.265557 -117.384387 58 10249ft 116kts
02-Sep-17 16:07 34.289791 -117.350836 44 10490ft 143kts
02-Sep-17 16:08 34.313076 -117.308971 64 9849ft 182kts
02-Sep-17 16:09 34.339146 -117.258554 57 9738ft 169kts
02-Sep-17 16:10 34.365377 -117.212656 57 9739ft 164kts
02-Sep-17 16:11 34.391241 -117.167787 55 9826ft 161kts
02-Sep-17 16:12 34.417280 -117.123401 57 9823ft 169kts
02-Sep-17 16:13 34.444579 -117.076185 57 9679ft 175kts
02-Sep-17 16:14 34.467757 -117.036166 57 9658ft 173kts
02-Sep-17 16:15 34.494765 -116.989499 57 9658ft 172kts
02-Sep-17 16:16 34.521196 -116.943781 57 9658ft 172kts
02-Sep-17 16:17 34.548519 -116.896446 57 9658ft 172kts
02-Sep-17 16:18 34.575866 -116.849023 57 9658ft 172kts
02-Sep-17 16:19 34.603201 -116.801539 57 9657ft 172kts
02-Sep-17 16:20 34.630880 -116.753396 57 9593ft 173kts
02-Sep-17 16:21 34.658311 -116.705637 57 9593ft 172kts
02-Sep-17 16:22 34.685612 -116.658022 57 9593ft 172kts
02-Sep-17 16:23 34.713295 -116.609682 57 9523ft 173kts
02-Sep-17 16:24 34.740598 -116.561949 57 9524ft 172kts
02-Sep-17 16:25 34.767781 -116.514350 57 9523ft 172kts
02-Sep-17 16:26 34.795068 -116.466490 58 9523ft 172kts
02-Sep-17 16:27 34.811519 -116.412960 71 9572ft 168kts
02-Sep-17 16:28 34.827087 -116.359136 71 9577ft 169kts
02-Sep-17 16:29 34.842050 -116.307207 72 9580ft 170kts
02-Sep-17 16:30 34.857672 -116.252887 72 9580ft 171kts
02-Sep-17 16:31 34.873352 -116.198260 72 9579ft 171kts
02-Sep-17 16:32 34.889055 -116.143454 72 9579ft 171kts
02-Sep-17 16:33 34.904635 -116.088955 72 9579ft 171kts
02-Sep-17 16:34 34.920212 -116.034374 72 9579ft 171kts
02-Sep-17 16:35 34.935782 -115.979707 72 9579ft 170kts
02-Sep-17 16:36 34.951112 -115.925786 72 9578ft 167kts
02-Sep-17 16:37 34.966251 -115.872418 72 9579ft 166kts
02-Sep-17 16:38 34.981319 -115.819201 72 9578ft 166kts
02-Sep-17 16:39 34.996381 -115.765896 72 9511ft 169kts
02-Sep-17 16:40 35.011431 -115.712554 72 9570ft 164kts
02-Sep-17 16:41 35.026318 -115.659679 72 9578ft 166kts
02-Sep-17 16:42 35.041165 -115.606831 72 9578ft 166kts
02-Sep-17 16:43 35.056219 -115.553136 72 9480ft 169kts
02-Sep-17 16:44 35.071386 -115.498957 72 9469ft 167kts
02-Sep-17 16:45 35.086419 -115.445147 72 9469ft 167kts
02-Sep-17 16:46 35.101054 -115.392661 72 9469ft 168kts
02-Sep-17 16:47 35.114971 -115.342666 72 9471ft 169kts
02-Sep-17 16:48 35.129960 -115.288721 72 9471ft 169kts
02-Sep-17 16:49 35.144991 -115.234505 72 9471ft 169kts
02-Sep-17 16:50 35.160079 -115.179976 72 9471ft 169kts
02-Sep-17 16:51 35.175165 -115.125348 72 9471ft 169kts
02-Sep-17 16:52 35.190217 -115.070733 72 9471ft 169kts
02-Sep-17 16:53 35.205209 -115.016225 72 9471ft 169kts
02-Sep-17 16:54 35.220239 -114.961484 73 9471ft 169kts
02-Sep-17 16:55 35.235159 -114.907014 73 9498ft 169kts
02-Sep-17 16:56 35.250001 -114.852721 73 9498ft 169kts
02-Sep-17 16:57 35.264822 -114.798405 73 9498ft 169kts
02-Sep-17 16:58 35.279734 -114.743641 73 9497ft 169kts
02-Sep-17 16:59 35.294602 -114.688927 73 9497ft 169kts
02-Sep-17 17:00 35.309475 -114.634086 73 9497ft 169kts
02-Sep-17 17:01 35.324308 -114.579283 73 9497ft 169kts
02-Sep-17 17:02 35.336648 -114.533615 73 9497ft 169kts
02-Sep-17 17:03 35.353879 -114.469687 73 9497ft 169kts
02-Sep-17 17:04 35.368590 -114.415001 73 9497ft 169kts
02-Sep-17 17:05 35.380756 -114.369649 74 9565ft 167kts
02-Sep-17 17:06 35.394825 -114.316916 73 9702ft 165kts
02-Sep-17 17:07 35.409299 -114.263026 73 9715ft 168kts
02-Sep-17 17:08 35.426601 -114.198971 76 9714ft 175kts
02-Sep-17 17:09 35.439214 -114.150111 72 9711ft 187kts
02-Sep-17 17:10 35.455590 -114.089045 72 9714ft 190kts
02-Sep-17 17:11 35.472178 -114.027384 75 9716ft 188kts
02-Sep-17 17:12 35.487551 -113.968274 73 9714ft 176kts
02-Sep-17 17:13 35.502270 -113.912752 73 9714ft 170kts
02-Sep-17 17:14 35.516800 -113.857684 73 9714ft 169kts
02-Sep-17 17:15 35.531155 -113.803088 73 9714ft 168kts
02-Sep-17 17:16 35.545567 -113.748382 74 9713ft 170kts
02-Sep-17 17:17 35.560347 -113.691367 73 9715ft 182kts
02-Sep-17 17:18 35.576217 -113.630703 72 9716ft 189kts
02-Sep-17 17:19 35.592297 -113.569165 72 9716ft 190kts
02-Sep-17 17:20 35.608394 -113.507261 72 9716ft 190kts
02-Sep-17 17:21 35.625558 -113.443588 80 9512ft 199kts
02-Sep-17 17:22 35.640685 -113.380434 71 8731ft 196kts
02-Sep-17 17:23 35.656846 -113.319192 70 8011ft 187kts
02-Sep-17 17:24 35.671229 -113.263835 69 7995ft 150kts
02-Sep-17 17:25 35.683008 -113.218186 69 8380ft 126kts
02-Sep-17 17:26 35.693385 -113.178518 70 8957ft 132kts
02-Sep-17 17:27 35.705614 -113.130620 72 9179ft 162kts
02-Sep-17 17:28 35.719731 -113.075038 72 9182ft 174kts
02-Sep-17 17:29 35.734360 -113.017598 72 9181ft 177kts
02-Sep-17 17:30 35.749116 -112.959603 72 9181ft 177kts
02-Sep-17 17:31 35.763831 -112.901650 72 9181ft 177kts
02-Sep-17 17:32 35.769423 -112.843033 100 9182ft 177kts
02-Sep-17 17:33 35.759107 -112.783530 101 9181ft 177kts
02-Sep-17 17:34 35.748972 -112.724203 101 9181ft 177kts
02-Sep-17 17:35 35.738789 -112.664787 101 9181ft 177kts
02-Sep-17 17:36 35.728603 -112.605457 101 9181ft 177kts
02-Sep-17 17:37 35.718413 -112.546203 101 9181ft 177kts
02-Sep-17 17:38 35.708169 -112.486811 101 9181ft 177kts
02-Sep-17 17:39 35.698010 -112.427272 95 9179ft 177kts
02-Sep-17 17:40 35.728678 -112.382445 39 9181ft 177kts
02-Sep-17 17:41 35.764219 -112.345085 40 9181ft 177kts
02-Sep-17 17:42 35.800028 -112.307500 40 9081ft 181kts
02-Sep-17 17:43 35.840583 -112.264845 40 8380ft 197kts
02-Sep-17 17:44 35.879744 -112.223554 40 8347ft 164kts
02-Sep-17 17:45 35.907875 -112.193588 40 7447ft 118kts
02-Sep-17 17:46 35.932032 -112.168450 40 6947ft 111kts
02-Sep-17 17:47 35.949903 -112.149536 41 6603ft 48kts
02-Sep-17 17:48 35.951824 -112.145788 62 6603ft 13kts

Navigation Log

Ident Type
Flight plan parsing failed, navigation log unavailable